createdAt,value
2023-01-19T00:02:20.644Z,-1.90
2023-01-19T00:04:50.044Z,-1.90
2023-01-19T00:07:17.320Z,-2.00
2023-01-19T00:09:56.633Z,-2.00
2023-01-19T00:12:44.412Z,-2.00
2023-01-19T00:15:17.126Z,-2.00
2023-01-19T00:17:44.094Z,-1.90
2023-01-19T00:20:32.341Z,-2.00
2023-01-19T00:25:54.417Z,-2.00
2023-01-19T00:28:23.917Z,-2.00
2023-01-19T00:31:01.033Z,-1.90
2023-01-19T00:33:32.921Z,-1.90
2023-01-19T00:38:47.242Z,-1.90
2023-01-19T00:41:39.932Z,-2.00
2023-01-19T00:44:06.869Z,-2.00
2023-01-19T00:46:33.929Z,-2.00
2023-01-19T00:49:12.542Z,-2.00
2023-01-19T00:51:48.214Z,-1.90
2023-01-19T00:54:24.832Z,-1.90
2023-01-19T00:57:10.131Z,-1.90
2023-01-19T00:59:37.411Z,-2.00
2023-01-19T01:02:04.512Z,-2.00
2023-01-19T01:04:34.430Z,-2.00
2023-01-19T01:07:02.105Z,-2.00
2023-01-19T01:09:32.364Z,-2.00
2023-01-19T01:12:19.906Z,-2.10
2023-01-19T01:14:46.904Z,-2.10
2023-01-19T01:17:14.283Z,-2.10
2023-01-19T01:19:41.729Z,-2.10
2023-01-19T01:22:09.978Z,-2.10
2023-01-19T01:24:37.052Z,-2.10
2023-01-19T01:27:07.286Z,-2.20
2023-01-19T01:29:35.529Z,-2.10
2023-01-19T01:32:14.113Z,-2.10
2023-01-19T01:34:41.346Z,-2.10
2023-01-19T01:37:16.093Z,-2.10
2023-01-19T01:39:42.907Z,-2.00
2023-01-19T01:42:26.032Z,-2.00
2023-01-19T01:45:01.422Z,-2.00
2023-01-19T01:47:53.379Z,-2.10
2023-01-19T01:50:59.410Z,-2.00
2023-01-19T01:53:37.678Z,-2.00
2023-01-19T01:56:12.742Z,-2.00
2023-01-19T01:59:08.032Z,-2.00
2023-01-19T02:01:57.199Z,-1.90
2023-01-19T02:04:27.191Z,-1.90
2023-01-19T02:07:13.089Z,-1.90
2023-01-19T02:09:59.116Z,-1.90
2023-01-19T02:12:46.194Z,-1.80
2023-01-19T02:15:48.236Z,-1.90
2023-01-19T02:18:38.052Z,-1.90
2023-01-19T02:21:37.461Z,-1.90
2023-01-19T02:24:08.662Z,-1.90
2023-01-19T02:26:58.945Z,-2.00
2023-01-19T02:29:31.080Z,-1.90
2023-01-19T02:32:04.971Z,-1.90
2023-01-19T02:34:35.033Z,-1.90
2023-01-19T02:37:10.174Z,-1.90
2023-01-19T02:40:11.079Z,-1.80
2023-01-19T02:43:01.907Z,-1.80
2023-01-19T02:45:35.988Z,-1.80
2023-01-19T02:48:12.498Z,-1.90
2023-01-19T02:50:55.207Z,-1.90
2023-01-19T02:53:38.569Z,-1.90
2023-01-19T02:56:28.299Z,-1.90
2023-01-19T02:59:20.575Z,-1.90
2023-01-19T03:02:18.439Z,-1.90
2023-01-19T03:05:11.313Z,-1.90
2023-01-19T03:08:28.846Z,-1.90
2023-01-19T03:11:18.020Z,-1.90
2023-01-19T03:14:20.927Z,-2.00
2023-01-19T03:16:57.451Z,-2.00
2023-01-19T03:19:56.239Z,-2.00
2023-01-19T03:22:27.360Z,-2.00
2023-01-19T03:24:59.340Z,-2.00
2023-01-19T03:27:46.671Z,-2.00
2023-01-19T03:30:23.672Z,-2.00
2023-01-19T03:33:03.064Z,-2.00
2023-01-19T03:35:47.772Z,-2.00
2023-01-19T03:38:35.615Z,-2.00
2023-01-19T03:47:46.878Z,-2.10
2023-01-19T03:51:20.522Z,-2.10
2023-01-19T03:59:45.402Z,-2.20
2023-01-19T04:02:30.366Z,-2.30
2023-01-19T04:05:04.607Z,-2.30
2023-01-19T04:10:33.337Z,-2.40
2023-01-19T04:13:23.673Z,-2.30
2023-01-19T04:23:26.501Z,-2.60
2023-01-19T04:26:18.721Z,-2.60
2023-01-19T04:28:57.187Z,-2.70
2023-01-19T04:31:42.164Z,-2.70
2023-01-19T04:34:17.950Z,-2.70
2023-01-19T04:37:16.382Z,-2.80
2023-01-19T04:40:12.804Z,-2.80
2023-01-19T04:42:52.407Z,-2.90
2023-01-19T04:48:06.088Z,-2.90
2023-01-19T04:50:38.910Z,-2.90
2023-01-19T04:57:03.540Z,-2.90
2023-01-19T05:08:49.598Z,-3.10
2023-01-19T05:11:41.802Z,-3.10
2023-01-19T05:15:02.045Z,-3.20
2023-01-19T05:17:32.683Z,-3.30
2023-01-19T05:39:52.100Z,-3.50
2023-01-19T06:53:30.098Z,-4.10
2023-01-19T06:56:27.146Z,-4.20
2023-01-19T06:59:02.962Z,-4.20
2023-01-19T07:12:39.738Z,-4.20
2023-01-19T07:15:42.025Z,-4.20
2023-01-19T07:25:38.167Z,-3.60
2023-01-19T07:28:05.161Z,-3.70
2023-01-19T07:31:04.043Z,-3.50
2023-01-19T07:37:35.283Z,-3.50
2023-01-19T07:43:05.436Z,-3.50
2023-01-19T07:45:45.545Z,-3.60
2023-01-19T07:48:25.443Z,-3.50
2023-01-19T07:58:12.081Z,-3.40
2023-01-19T08:01:22.151Z,-3.30
2023-01-19T08:07:41.395Z,-3.20
2023-01-19T08:10:50.619Z,-3.10
2023-01-19T08:17:44.616Z,-3.10
2023-01-19T08:26:19.648Z,-3.00
2023-01-19T08:29:29.578Z,-3.00
2023-01-19T08:38:44.985Z,-2.90
2023-01-19T08:41:13.069Z,-2.90
2023-01-19T08:43:40.064Z,-2.80
2023-01-19T08:46:15.354Z,-2.80
2023-01-19T08:49:09.268Z,-2.70
2023-01-19T08:54:20.472Z,-2.70
2023-01-19T08:56:56.996Z,-2.70
2023-01-19T08:59:26.726Z,-2.70
2023-01-19T09:04:55.704Z,-2.70
2023-01-19T09:07:40.961Z,-2.70
2023-01-19T09:10:11.554Z,-2.60
2023-01-19T09:12:42.972Z,-2.60
2023-01-19T09:15:10.840Z,-2.50
2023-01-19T09:17:44.404Z,-2.40
2023-01-19T09:20:20.108Z,-2.40
2023-01-19T09:22:48.054Z,-2.30
2023-01-19T09:25:17.633Z,-2.20
2023-01-19T09:27:44.456Z,-2.20
2023-01-19T09:30:12.093Z,-2.00
2023-01-19T09:32:55.088Z,-1.90
2023-01-19T09:35:27.687Z,-1.80
2023-01-19T09:37:57.548Z,-1.70
2023-01-19T09:40:25.091Z,-1.70
2023-01-19T09:43:16.048Z,-1.60
2023-01-19T09:46:18.029Z,-1.50
2023-01-19T09:48:55.666Z,-1.40
2023-01-19T09:51:32.887Z,-1.30
2023-01-19T10:00:24.453Z,-1.20
2023-01-19T10:03:23.983Z,-1.10
2023-01-19T10:06:05.136Z,-1.10
2023-01-19T10:12:24.353Z,-1.00
2023-01-19T10:16:06.226Z,-0.90
2023-01-19T10:18:46.102Z,-0.70
2023-01-19T10:21:38.878Z,-0.70
2023-01-19T10:24:28.258Z,-0.60
2023-01-19T10:29:52.098Z,-0.60
2023-01-19T10:32:41.478Z,-0.60
2023-01-19T10:35:46.904Z,-0.60
2023-01-19T10:38:44.088Z,-0.60
2023-01-19T10:41:32.144Z,-0.50
2023-01-19T10:44:07.135Z,-0.30
2023-01-19T10:46:46.326Z,-0.10
2023-01-19T10:49:35.791Z,0.00
2023-01-19T10:55:26.037Z,0.00
2023-01-19T10:58:05.599Z,0.00
2023-01-19T11:01:18.252Z,-0.10
2023-01-19T11:03:50.978Z,0.10
2023-01-19T11:06:24.331Z,0.00
2023-01-19T11:08:55.697Z,0.00
2023-01-19T11:11:25.918Z,-0.10
2023-01-19T11:14:17.107Z,0.00
2023-01-19T11:22:36.128Z,0.10
2023-01-19T11:25:20.286Z,0.30
2023-01-19T11:27:57.528Z,0.40
2023-01-19T11:30:28.936Z,0.40
2023-01-19T11:32:56.434Z,0.30
2023-01-19T11:35:53.889Z,0.30
2023-01-19T11:38:23.221Z,0.20
2023-01-19T11:40:57.030Z,0.20
2023-01-19T11:43:36.651Z,0.40
2023-01-19T11:46:15.229Z,0.20
2023-01-19T11:49:11.610Z,0.20
2023-01-19T11:51:47.765Z,0.30
2023-01-19T11:54:33.012Z,0.60
2023-01-19T11:57:17.204Z,0.50
2023-01-19T11:59:47.490Z,0.30
2023-01-19T12:02:45.331Z,0.30
2023-01-19T12:05:25.720Z,0.30
2023-01-19T12:07:54.093Z,0.50
2023-01-19T12:10:30.678Z,0.60
2023-01-19T12:13:04.345Z,0.60
2023-01-19T12:15:42.205Z,0.70
2023-01-19T12:18:21.061Z,0.70
2023-01-19T12:20:52.936Z,0.50
2023-01-19T12:23:19.662Z,0.50
2023-01-19T12:26:22.989Z,0.40
2023-01-19T12:28:52.353Z,0.50
2023-01-19T12:31:22.145Z,0.40
2023-01-19T12:33:50.220Z,0.40
2023-01-19T12:36:17.140Z,0.40
2023-01-19T12:45:20.324Z,0.20
2023-01-19T12:47:57.183Z,0.10
2023-01-19T12:50:31.239Z,0.00
2023-01-19T12:53:02.992Z,0.10
2023-01-19T12:55:39.384Z,0.10
2023-01-19T12:58:18.942Z,0.20
2023-01-19T13:00:48.335Z,0.30
2023-01-19T13:03:21.238Z,0.30
2023-01-19T13:05:51.017Z,0.40
2023-01-19T13:08:20.174Z,0.30
2023-01-19T13:11:02.724Z,0.20
2023-01-19T13:13:31.551Z,0.30
2023-01-19T13:16:29.498Z,0.40
2023-01-19T13:19:13.385Z,0.40
2023-01-19T13:21:47.543Z,0.30
2023-01-19T13:24:23.788Z,0.10
2023-01-19T13:29:35.381Z,0.10
2023-01-19T13:32:05.552Z,0.20
2023-01-19T13:34:46.436Z,0.00
2023-01-19T13:37:29.005Z,-0.10
2023-01-19T13:40:05.477Z,0.00
2023-01-19T13:43:09.733Z,0.10
2023-01-19T13:49:49.861Z,-0.10
2023-01-19T13:52:35.764Z,-0.10
2023-01-19T13:55:05.999Z,-0.10
2023-01-19T13:57:53.794Z,-0.10
2023-01-19T14:00:33.526Z,-0.10
2023-01-19T14:03:13.339Z,-0.20
2023-01-19T14:06:06.345Z,-0.30
2023-01-19T14:08:38.835Z,-0.30
2023-01-19T14:11:39.220Z,-0.40
2023-01-19T14:17:41.599Z,-0.30
2023-01-19T14:20:49.675Z,-0.30
2023-01-19T14:24:37.117Z,-0.40
2023-01-19T14:27:55.288Z,-0.30
2023-01-19T14:30:27.255Z,-0.30
2023-01-19T14:33:08.804Z,-0.30
2023-01-19T14:35:43.363Z,-0.40
2023-01-19T14:44:42.928Z,-0.30
2023-01-19T14:50:41.491Z,-0.40
2023-01-19T14:53:24.148Z,-0.60
2023-01-19T14:56:08.280Z,-0.70
2023-01-19T14:58:42.360Z,-0.80
2023-01-19T15:01:09.900Z,-0.80
2023-01-19T15:03:48.374Z,-0.70
2023-01-19T15:06:26.462Z,-0.80
2023-01-19T15:08:54.830Z,-0.70
2023-01-19T15:14:35.906Z,-0.70
2023-01-19T15:17:17.656Z,-0.60
2023-01-19T15:19:57.059Z,-0.70
2023-01-19T15:22:41.799Z,-0.80
2023-01-19T15:25:26.288Z,-0.80
2023-01-19T15:28:04.784Z,-0.80
2023-01-19T15:30:38.018Z,-0.90
2023-01-19T15:33:39.582Z,-0.90
2023-01-19T15:36:28.950Z,-0.90
2023-01-19T15:39:01.387Z,-0.90
2023-01-19T15:41:43.238Z,-1.00
2023-01-19T15:44:14.149Z,-1.00
2023-01-19T15:46:41.170Z,-1.00
2023-01-19T15:49:10.849Z,-1.00
2023-01-19T15:51:40.780Z,-1.00
2023-01-19T15:54:14.858Z,-1.00
2023-01-19T15:56:54.807Z,-1.00
2023-01-19T15:59:27.280Z,-1.00
2023-01-19T16:01:55.117Z,-1.00
2023-01-19T16:04:27.785Z,-1.00
2023-01-19T16:07:01.010Z,-1.10
2023-01-19T16:09:33.913Z,-1.10
2023-01-19T16:12:04.795Z,-1.00
2023-01-19T16:14:31.904Z,-1.10
2023-01-19T16:17:00.007Z,-1.10
2023-01-19T16:19:38.836Z,-1.10
2023-01-19T16:25:16.077Z,-1.10
2023-01-19T16:27:48.436Z,-1.10
2023-01-19T16:30:24.532Z,-1.10
2023-01-19T16:33:03.387Z,-1.10
2023-01-19T16:35:37.783Z,-1.10
2023-01-19T16:41:06.070Z,-1.20
2023-01-19T16:43:33.566Z,-1.20
2023-01-19T16:46:11.492Z,-1.20
2023-01-19T16:48:44.385Z,-1.20
2023-01-19T16:51:11.944Z,-1.10
2023-01-19T16:53:41.626Z,-1.10
2023-01-19T16:56:30.366Z,-1.20
2023-01-19T16:58:59.597Z,-1.10
2023-01-19T17:01:28.557Z,-1.10
2023-01-19T17:03:56.189Z,-1.00
2023-01-19T17:06:30.270Z,-0.90
2023-01-19T17:09:01.003Z,-0.80
2023-01-19T17:11:35.713Z,-0.80
2023-01-19T17:14:05.162Z,-0.80
2023-01-19T17:19:33.031Z,-0.80
2023-01-19T17:22:05.837Z,-0.80
2023-01-19T17:27:34.372Z,-0.80
2023-01-19T17:30:01.755Z,-0.80
2023-01-19T17:35:13.670Z,-0.80
2023-01-19T17:40:28.314Z,-0.80
2023-01-19T17:43:33.359Z,-0.80
2023-01-19T17:46:00.546Z,-0.80
2023-01-19T17:48:27.678Z,-0.80
2023-01-19T17:50:55.598Z,-0.70
2023-01-19T17:53:32.196Z,-0.70
2023-01-19T17:59:46.396Z,-0.80
2023-01-19T18:02:30.419Z,-0.80
2023-01-19T18:05:00.716Z,-0.90
2023-01-19T18:07:34.192Z,-0.90
2023-01-19T18:10:14.140Z,-1.10
2023-01-19T18:12:45.361Z,-1.30
2023-01-19T18:15:18.686Z,-1.30
2023-01-19T18:17:47.198Z,-1.40
2023-01-19T18:20:23.363Z,-1.30
2023-01-19T18:25:59.955Z,-1.10
2023-01-19T18:28:30.781Z,-1.10
2023-01-19T18:31:04.218Z,-1.00
2023-01-19T18:33:40.556Z,-1.00
2023-01-19T18:36:20.532Z,-1.00
2023-01-19T18:38:59.674Z,-1.20
2023-01-19T18:41:29.985Z,-1.30
2023-01-19T18:44:00.396Z,-1.30
2023-01-19T18:46:27.551Z,-1.30
2023-01-19T18:48:54.820Z,-1.20
2023-01-19T18:54:12.450Z,-1.30
2023-01-19T18:56:39.861Z,-1.20
2023-01-19T18:59:07.226Z,-1.40
2023-01-19T19:01:35.454Z,-1.40
2023-01-19T19:04:13.216Z,-1.20
2023-01-19T19:06:40.247Z,-1.20
2023-01-19T19:09:07.268Z,-1.30
2023-01-19T19:11:34.881Z,-1.30
2023-01-19T19:14:02.452Z,-1.30
2023-01-19T19:16:30.135Z,-1.30
2023-01-19T19:18:57.421Z,-1.40
2023-01-19T19:21:25.513Z,-1.30
2023-01-19T19:23:57.592Z,-1.40
2023-01-19T19:26:25.856Z,-1.40
2023-01-19T19:28:52.757Z,-1.30
2023-01-19T19:31:22.194Z,-1.30
2023-01-19T19:33:52.574Z,-1.30
2023-01-19T19:36:21.417Z,-1.40
2023-01-19T19:39:02.036Z,-1.40
2023-01-19T19:41:37.043Z,-1.40
2023-01-19T19:44:04.359Z,-1.40
2023-01-19T19:46:31.294Z,-1.40
2023-01-19T19:48:58.706Z,-1.50
2023-01-19T19:54:21.022Z,-1.50
2023-01-19T19:57:19.334Z,-1.50
2023-01-19T20:02:30.222Z,-1.50
2023-01-19T20:05:01.357Z,-1.60
2023-01-19T20:07:28.199Z,-1.50
2023-01-19T20:09:55.309Z,-1.50
2023-01-19T20:12:25.258Z,-1.40
2023-01-19T20:14:55.203Z,-1.30
2023-01-19T20:17:26.678Z,-1.50
2023-01-19T20:19:56.609Z,-1.80
2023-01-19T20:22:23.518Z,-1.90
2023-01-19T20:24:56.280Z,-1.80
2023-01-19T20:27:25.557Z,-1.80
2023-01-19T20:30:07.154Z,-1.60
2023-01-19T20:32:34.990Z,-1.50
2023-01-19T20:35:01.769Z,-1.40
2023-01-19T20:37:35.159Z,-1.30
2023-01-19T20:43:12.431Z,-1.40
2023-01-19T20:45:39.669Z,-1.40
2023-01-19T20:48:13.055Z,-1.40
2023-01-19T20:50:40.252Z,-1.30
2023-01-19T20:53:11.783Z,-1.30
2023-01-19T20:55:59.823Z,-1.20
2023-01-19T20:58:35.842Z,-1.30
2023-01-19T21:04:30.734Z,-1.30
2023-01-19T21:09:46.750Z,-1.40
2023-01-19T21:12:17.083Z,-1.40
2023-01-19T21:14:56.460Z,-1.40
2023-01-19T21:17:23.775Z,-1.40
2023-01-19T21:19:56.177Z,-1.60
2023-01-19T21:22:23.489Z,-1.70
2023-01-19T21:25:01.336Z,-1.70
2023-01-19T21:27:34.090Z,-1.80
2023-01-19T21:30:05.827Z,-1.70
2023-01-19T21:32:47.280Z,-1.70
2023-01-19T21:35:41.457Z,-1.80
2023-01-19T21:44:56.476Z,-1.80
2023-01-19T21:47:30.067Z,-1.80
2023-01-19T21:49:56.853Z,-1.80
2023-01-19T21:52:44.431Z,-1.80
2023-01-19T21:55:23.294Z,-1.80
2023-01-19T21:58:01.588Z,-1.80
2023-01-19T22:00:32.044Z,-1.80
2023-01-19T22:03:04.519Z,-1.90
2023-01-19T22:05:36.808Z,-2.00
2023-01-19T22:08:05.002Z,-2.00
2023-01-19T22:10:34.807Z,-2.10
2023-01-19T22:13:08.084Z,-2.20
2023-01-19T22:18:39.317Z,-2.30
2023-01-19T22:24:36.521Z,-2.30
2023-01-19T22:27:06.792Z,-2.30
2023-01-19T22:29:33.626Z,-2.40
2023-01-19T22:32:02.634Z,-2.40
2023-01-19T22:34:32.452Z,-2.40
2023-01-19T22:36:59.498Z,-2.40
2023-01-19T22:39:29.085Z,-2.50
2023-01-19T22:41:59.051Z,-2.50
2023-01-19T22:44:26.135Z,-2.60
2023-01-19T22:54:12.874Z,-2.50
2023-01-19T22:56:43.263Z,-2.50
2023-01-19T23:06:36.466Z,-2.40
2023-01-19T23:59:40.578Z,-2.60
